Hume, CA (93628)

6:30 AM PST on November 27, 2014 (GMT -0800)
Hume Lake | Change Station
CLOSE
Current Station
Personal Weather Station
Location: Hume, CA
Elevation: 5240 ft
Nearby Weather Stations

Elev 5240 ft 36.79 °N, 118.91 °W | Updated 8 seconds ago

Partly Cloudy
Partly Cloudy
30.1 °F
Feels Like 30 °F
N
1.4
Wind Variable Wind from WSW
Gusts 1.4 mph

Today
High -- | Low -- °F
--% Chance of Precip.
Yesterday
High -- | Low -- °F
Precip. -- in
6:45 AM 4:40 PM
Waxing Crescent, 30% visible
Pressure 30.30 in
Visibility 10.0 miles
Clouds Clear
Windchill 30 °F
Dew Point 28 °F
Humidity 91%
Rainfall 0.00 in
Snow Depth Not available.
UV 0 out of 12
Pollen 1.20 out of 12
Air Quality Not available.
Flu Activity Not available.
METAR KBIH 271356Z AUTO 31006KT 10SM CLR 02/M08 A3033 RMK AO2 SLP261 T00221083

More Conditions Fewer Conditions

Pressure 30.30 in
Visibility 10.0 miles
Clouds Clear
Windchill 30 °F
Dew Point 28 °F
Humidity 91%
Rainfall 0.00 in
Snow Depth Not available.
UV 0 out of 12
Pollen 1.20 out of 12
Air Quality Not available.
Flu Activity Not available.
METAR KBIH 271356Z AUTO 31006KT 10SM CLR 02/M08 A3033 RMK AO2 SLP261 T00221083

More Conditions Fewer Conditions

10-Day Weather Forecast

Almanac

Astronomy

Nov. 27, 2014 Rise Set
Actual Time
Civil Twilight
Nautical Twilight
Astronomical Twilight
Moon
Length of Visible Light
Length of Day
Tomorrow will be .
, % of the Moon is Illuminated

Today's Extremes

State Highs State Lows

Community

WunderPhotos

Upload Photos

1,774,005 photos uploaded!

WunderBlogs® & News

Nearby

Air Quality

  Air Quality AQ Index Pollutant
Not available.

Snow Depth

Station Depth Elevation

Earthquake Activity

City Distance Mag. Time & Date
Minimum magnitude displayed is 2.5.

Coastal Water Temperatures

Place Temperature

Nearby Weather Stations